sensor_id;sensor_type;location;lat;lon;timestamp;pressure;altitude;pressure_sealevel;temperature;humidity
47761;BME280;33524;55.434;38.520;2023-03-14T00:00:19;100254.84;;;-5.07;88.31
47761;BME280;33524;55.434;38.520;2023-03-14T00:02:52;100247.16;;;-5.07;88.29
47761;BME280;33524;55.434;38.520;2023-03-14T00:05:19;100252.28;;;-5.05;88.22
47761;BME280;33524;55.434;38.520;2023-03-14T00:07:46;100255.66;;;-5.00;88.17
47761;BME280;33524;55.434;38.520;2023-03-14T00:10:14;100247.97;;;-5.01;88.27
47761;BME280;33524;55.434;38.520;2023-03-14T00:12:42;100241.13;;;-4.99;88.22
47761;BME280;33524;55.434;38.520;2023-03-14T00:15:10;100236.84;;;-5.00;88.27
47761;BME280;33524;55.434;38.520;2023-03-14T00:17:38;100238.50;;;-4.96;88.09
47761;BME280;33524;55.434;38.520;2023-03-14T00:20:06;100229.06;;;-4.94;88.03
47761;BME280;33524;55.434;38.520;2023-03-14T00:22:36;100229.06;;;-4.93;87.82
47761;BME280;33524;55.434;38.520;2023-03-14T00:25:04;100223.00;;;-4.87;87.66
47761;BME280;33524;55.434;38.520;2023-03-14T00:27:33;100211.84;;;-4.83;87.83
47761;BME280;33524;55.434;38.520;2023-03-14T00:30:00;100205.00;;;-4.84;87.65
47761;BME280;33524;55.434;38.520;2023-03-14T00:32:29;100198.12;;;-4.82;87.87
47761;BME280;33524;55.434;38.520;2023-03-14T00:34:57;100191.34;;;-4.86;87.51
47761;BME280;33524;55.434;38.520;2023-03-14T00:37:27;100192.25;;;-4.89;88.08
47761;BME280;33524;55.434;38.520;2023-03-14T00:39:54;100194.75;;;-4.84;88.00
47761;BME280;33524;55.434;38.520;2023-03-14T00:42:21;100188.69;;;-4.78;87.96
47761;BME280;33524;55.434;38.520;2023-03-14T00:44:50;100178.44;;;-4.78;87.88
47761;BME280;33524;55.434;38.520;2023-03-14T00:47:17;100172.41;;;-4.76;87.73
47761;BME280;33524;55.434;38.520;2023-03-14T00:49:44;100177.50;;;-4.73;87.57
47761;BME280;33524;55.434;38.520;2023-03-14T00:52:12;100174.06;;;-4.72;87.69
47761;BME280;33524;55.434;38.520;2023-03-14T00:54:39;100169.91;;;-4.79;88.06
47761;BME280;33524;55.434;38.520;2023-03-14T00:57:07;100160.38;;;-4.71;87.88
47761;BME280;33524;55.434;38.520;2023-03-14T00:59:35;100168.03;;;-4.68;87.96
47761;BME280;33524;55.434;38.520;2023-03-14T01:02:02;100161.97;;;-4.63;87.89
47761;BME280;33524;55.434;38.520;2023-03-14T01:04:29;100165.34;;;-4.58;87.27
47761;BME280;33524;55.434;38.520;2023-03-14T01:06:58;100165.28;;;-4.55;87.21
47761;BME280;33524;55.434;38.520;2023-03-14T01:09:25;100159.37;;;-4.60;87.57
47761;BME280;33524;55.434;38.520;2023-03-14T01:11:56;100165.25;;;-4.52;87.53
47761;BME280;33524;55.434;38.520;2023-03-14T01:14:24;100161.88;;;-4.54;87.96
47761;BME280;33524;55.434;38.520;2023-03-14T01:16:51;100164.38;;;-4.51;87.99
47761;BME280;33524;55.434;38.520;2023-03-14T01:19:19;100163.44;;;-4.44;87.58
47761;BME280;33524;55.434;38.520;2023-03-14T01:21:46;100173.63;;;-4.41;87.57
47761;BME280;33524;55.434;38.520;2023-03-14T01:24:14;100167.59;;;-4.37;87.58
47761;BME280;33524;55.434;38.520;2023-03-14T01:26:42;100163.34;;;-4.38;87.59
47761;BME280;33524;55.434;38.520;2023-03-14T01:29:09;100151.22;;;-4.30;87.80
47761;BME280;33524;55.434;38.520;2023-03-14T01:31:37;100143.47;;;-4.28;88.08
47761;BME280;33524;55.434;38.520;2023-03-14T01:34:04;100142.69;;;-4.32;89.78
47761;BME280;33524;55.434;38.520;2023-03-14T01:36:32;100147.84;;;-4.32;89.57
47761;BME280;33524;55.434;38.520;2023-03-14T01:39:00;100150.25;;;-4.24;89.45
47761;BME280;33524;55.434;38.520;2023-03-14T01:41:28;100144.28;;;-4.24;91.38
47761;BME280;33524;55.434;38.520;2023-03-14T01:43:56;100140.69;;;-4.14;88.63
47761;BME280;33524;55.434;38.520;2023-03-14T01:46:35;100139.91;;;-4.18;88.55
47761;BME280;33524;55.434;38.520;2023-03-14T01:49:26;100134.72;;;-4.13;89.62
47761;BME280;33524;55.434;38.520;2023-03-14T01:54:44;100148.19;;;-4.00;88.69
47761;BME280;33524;55.434;38.520;2023-03-14T01:57:29;100130.97;;;-3.95;87.26
47761;BME280;33524;55.434;38.520;2023-03-14T02:00:10;100118.03;;;-3.91;86.29
47761;BME280;33524;55.434;38.520;2023-03-14T02:02:50;100100.94;;;-3.92;87.68
47761;BME280;33524;55.434;38.520;2023-03-14T02:05:23;100094.94;;;-3.92;87.13
47761;BME280;33524;55.434;38.520;2023-03-14T02:07:55;100072.50;;;-3.82;87.08
47761;BME280;33524;55.434;38.520;2023-03-14T02:10:31;100078.41;;;-3.77;86.14
47761;BME280;33524;55.434;38.520;2023-03-14T02:13:02;100091.28;;;-3.79;87.21
47761;BME280;33524;55.434;38.520;2023-03-14T02:15:32;100086.94;;;-3.75;87.87
47761;BME280;33524;55.434;38.520;2023-03-14T02:18:02;100083.44;;;-3.71;87.88
47761;BME280;33524;55.434;38.520;2023-03-14T02:23:15;100063.66;;;-3.68;86.78
47761;BME280;33524;55.434;38.520;2023-03-14T02:25:51;100056.78;;;-3.66;87.12
47761;BME280;33524;55.434;38.520;2023-03-14T02:28:21;100056.66;;;-3.59;89.10
47761;BME280;33524;55.434;38.520;2023-03-14T02:30:51;100058.47;;;-3.66;88.97
47761;BME280;33524;55.434;38.520;2023-03-14T02:33:20;100051.53;;;-3.61;88.86
47761;BME280;33524;55.434;38.520;2023-03-14T02:35:55;100050.59;;;-3.57;87.30
47761;BME280;33524;55.434;38.520;2023-03-14T02:40:57;100046.16;;;-3.50;87.45
47761;BME280;33524;55.434;38.520;2023-03-14T02:43:25;100041.88;;;-3.50;87.31
47761;BME280;33524;55.434;38.520;2023-03-14T02:45:56;100033.28;;;-3.47;89.29
47761;BME280;33524;55.434;38.520;2023-03-14T02:50:55;100016.72;;;-3.35;86.95
47761;BME280;33524;55.434;38.520;2023-03-14T02:53:27;100001.34;;;-3.37;87.00
47761;BME280;33524;55.434;38.520;2023-03-14T02:55:57;99995.19;;;-3.31;86.81
47761;BME280;33524;55.434;38.520;2023-03-14T02:58:26;99991.81;;;-3.33;88.17
47761;BME280;33524;55.434;38.520;2023-03-14T03:00:55;99989.09;;;-3.27;88.80
47761;BME280;33524;55.434;38.520;2023-03-14T03:03:23;99990.72;;;-3.23;87.17
47761;BME280;33524;55.434;38.520;2023-03-14T03:05:52;99976.06;;;-3.18;87.03
47761;BME280;33524;55.434;38.520;2023-03-14T03:08:22;99964.00;;;-3.16;87.47
47761;BME280;33524;55.434;38.520;2023-03-14T03:10:50;99960.41;;;-3.09;88.46
47761;BME280;33524;55.434;38.520;2023-03-14T03:13:18;99950.91;;;-3.07;87.19
47761;BME280;33524;55.434;38.520;2023-03-14T03:15:47;99938.00;;;-3.03;87.66
47761;BME280;33524;55.434;38.520;2023-03-14T03:18:15;99925.97;;;-3.03;87.09
47761;BME280;33524;55.434;38.520;2023-03-14T03:20:42;99926.81;;;-3.02;88.39
47761;BME280;33524;55.434;38.520;2023-03-14T03:23:09;99929.34;;;-3.01;89.39
47761;BME280;33524;55.434;38.520;2023-03-14T03:25:38;99925.69;;;-2.92;87.94
47761;BME280;33524;55.434;38.520;2023-03-14T03:28:05;99925.72;;;-2.94;88.73
47761;BME280;33524;55.434;38.520;2023-03-14T03:30:39;99928.94;;;-2.84;87.04
47761;BME280;33524;55.434;38.520;2023-03-14T03:33:08;99940.97;;;-2.86;87.79
47761;BME280;33524;55.434;38.520;2023-03-14T03:35:43;99942.56;;;-2.80;87.56
47761;BME280;33524;55.434;38.520;2023-03-14T03:38:13;99940.13;;;-2.85;88.64
47761;BME280;33524;55.434;38.520;2023-03-14T03:40:42;99942.53;;;-2.79;87.96
47761;BME280;33524;55.434;38.520;2023-03-14T03:43:10;99936.59;;;-2.81;88.53
47761;BME280;33524;55.434;38.520;2023-03-14T03:45:39;99918.41;;;-2.75;88.40
47761;BME280;33524;55.434;38.520;2023-03-14T03:48:07;99912.34;;;-2.72;90.74
47761;BME280;33524;55.434;38.520;2023-03-14T03:50:34;99909.66;;;-2.69;88.90
47761;BME280;33524;55.434;38.520;2023-03-14T03:53:02;99905.28;;;-2.66;88.42
47761;BME280;33524;55.434;38.520;2023-03-14T03:55:30;99900.78;;;-2.57;88.43
47761;BME280;33524;55.434;38.520;2023-03-14T03:57:59;99894.72;;;-2.55;90.12
47761;BME280;33524;55.434;38.520;2023-03-14T04:00:27;99899.00;;;-2.55;89.27
47761;BME280;33524;55.434;38.520;2023-03-14T04:02:54;99894.72;;;-2.55;88.29
47761;BME280;33524;55.434;38.520;2023-03-14T04:05:22;99891.16;;;-2.51;88.18
47761;BME280;33524;55.434;38.520;2023-03-14T04:07:51;99883.41;;;-2.49;89.63
47761;BME280;33524;55.434;38.520;2023-03-14T04:10:20;99875.50;;;-2.43;90.66
47761;BME280;33524;55.434;38.520;2023-03-14T04:12:48;99881.47;;;-2.41;91.41
47761;BME280;33524;55.434;38.520;2023-03-14T04:15:15;99864.25;;;-2.39;89.46
47761;BME280;33524;55.434;38.520;2023-03-14T04:17:43;99872.50;;;-2.28;91.65
47761;BME280;33524;55.434;38.520;2023-03-14T04:20:13;99867.53;;;-2.34;88.81
47761;BME280;33524;55.434;38.520;2023-03-14T04:22:40;99859.69;;;-2.29;88.51
47761;BME280;33524;55.434;38.520;2023-03-14T04:25:10;99858.66;;;-2.24;89.50
47761;BME280;33524;55.434;38.520;2023-03-14T04:27:39;99855.09;;;-2.19;88.42
47761;BME280;33524;55.434;38.520;2023-03-14T04:30:08;99849.69;;;-2.10;90.72
47761;BME280;33524;55.434;38.520;2023-03-14T04:32:39;99858.22;;;-2.08;90.40
47761;BME280;33524;55.434;38.520;2023-03-14T04:35:07;99861.66;;;-2.09;90.01
47761;BME280;33524;55.434;38.520;2023-03-14T04:37:35;99857.31;;;-2.07;88.63
47761;BME280;33524;55.434;38.520;2023-03-14T04:40:09;99857.94;;;-1.99;89.29
47761;BME280;33524;55.434;38.520;2023-03-14T04:42:39;99853.19;;;-1.83;91.97
47761;BME280;33524;55.434;38.520;2023-03-14T04:45:09;99851.66;;;-1.90;89.45
47761;BME280;33524;55.434;38.520;2023-03-14T04:47:40;99852.34;;;-1.84;89.51
47761;BME280;33524;55.434;38.520;2023-03-14T04:50:23;99833.19;;;-1.76;90.76
47761;BME280;33524;55.434;38.520;2023-03-14T04:53:08;99834.00;;;-1.74;89.06
47761;BME280;33524;55.434;38.520;2023-03-14T04:55:41;99826.91;;;-1.68;88.15
47761;BME280;33524;55.434;38.520;2023-03-14T04:58:11;99817.28;;;-1.61;88.59
47761;BME280;33524;55.434;38.520;2023-03-14T05:00:42;99822.31;;;-1.58;88.00
47761;BME280;33524;55.434;38.520;2023-03-14T05:03:14;99811.53;;;-1.43;89.77
47761;BME280;33524;55.434;38.520;2023-03-14T05:05:44;99797.25;;;-1.53;87.35
47761;BME280;33524;55.434;38.520;2023-03-14T05:08:14;99796.13;;;-1.46;87.80
47761;BME280;33524;55.434;38.520;2023-03-14T05:10:45;99792.28;;;-1.32;87.43
47761;BME280;33524;55.434;38.520;2023-03-14T05:13:21;99785.22;;;-1.27;87.55
47761;BME280;33524;55.434;38.520;2023-03-14T05:15:51;99792.28;;;-1.32;86.00
47761;BME280;33524;55.434;38.520;2023-03-14T05:18:21;99788.16;;;-1.13;88.23
47761;BME280;33524;55.434;38.520;2023-03-14T05:20:51;99786.47;;;-1.14;85.90
47761;BME280;33524;55.434;38.520;2023-03-14T05:23:21;99790.78;;;-1.14;85.75
47761;BME280;33524;55.434;38.520;2023-03-14T05:26:11;99779.87;;;-0.97;85.72
47761;BME280;33524;55.434;38.520;2023-03-14T05:28:41;99781.94;;;-0.82;86.71
47761;BME280;33524;55.434;38.520;2023-03-14T05:31:10;99779.16;;;-0.76;85.40
47761;BME280;33524;55.434;38.520;2023-03-14T05:33:41;99773.03;;;-0.73;84.62
47761;BME280;33524;55.434;38.520;2023-03-14T05:36:25;99767.91;;;-0.75;85.42
47761;BME280;33524;55.434;38.520;2023-03-14T05:38:55;99770.06;;;-0.39;86.39
47761;BME280;33524;55.434;38.520;2023-03-14T05:41:23;99764.00;;;-0.62;82.39
47761;BME280;33524;55.434;38.520;2023-03-14T05:43:53;99750.44;;;-0.45;83.64
47761;BME280;33524;55.434;38.520;2023-03-14T05:46:24;99740.19;;;-0.70;82.92
47761;BME280;33524;55.434;38.520;2023-03-14T05:48:53;99729.88;;;-0.48;85.06
47761;BME280;33524;55.434;38.520;2023-03-14T05:51:25;99738.03;;;-0.58;82.57
47761;BME280;33524;55.434;38.520;2023-03-14T05:53:55;99753.34;;;-0.30;83.60
47761;BME280;33524;55.434;38.520;2023-03-14T06:00:04;99754.81;;;-0.47;82.90
47761;BME280;33524;55.434;38.520;2023-03-14T06:02:38;99755.94;;;-0.54;81.55
47761;BME280;33524;55.434;38.520;2023-03-14T06:05:10;99750.41;;;-0.21;81.56
47761;BME280;33524;55.434;38.520;2023-03-14T06:07:39;99753.72;;;-0.17;81.54
47761;BME280;33524;55.434;38.520;2023-03-14T06:10:10;99732.53;;;-0.49;80.99
47761;BME280;33524;55.434;38.520;2023-03-14T06:12:38;99747.72;;;-0.18;80.33
47761;BME280;33524;55.434;38.520;2023-03-14T06:15:08;99748.78;;;-0.24;79.70
47761;BME280;33524;55.434;38.520;2023-03-14T06:17:37;99749.63;;;-0.23;79.84
47761;BME280;33524;55.434;38.520;2023-03-14T06:20:09;99746.88;;;-0.18;79.95
47761;BME280;33524;55.434;38.520;2023-03-14T06:22:39;99742.50;;;-0.16;79.36
47761;BME280;33524;55.434;38.520;2023-03-14T06:25:10;99750.50;;;-0.23;79.87
47761;BME280;33524;55.434;38.520;2023-03-14T06:27:44;99745.62;;;-0.08;79.41
47761;BME280;33524;55.434;38.520;2023-03-14T06:30:13;99750.34;;;0.25;78.34
47761;BME280;33524;55.434;38.520;2023-03-14T06:32:43;99743.72;;;0.39;76.85
47761;BME280;33524;55.434;38.520;2023-03-14T06:35:13;99755.34;;;0.29;77.26
47761;BME280;33524;55.434;38.520;2023-03-14T06:37:42;99749.75;;;0.81;75.93
47761;BME280;33524;55.434;38.520;2023-03-14T06:40:12;99761.44;;;1.10;74.77
47761;BME280;33524;55.434;38.520;2023-03-14T06:42:47;99754.12;;;0.38;76.79
47761;BME280;33524;55.434;38.520;2023-03-14T06:45:16;99741.78;;;0.23;77.39
47761;BME280;33524;55.434;38.520;2023-03-14T06:47:46;99754.72;;;0.65;76.12
47761;BME280;33524;55.434;38.520;2023-03-14T06:50:18;99749.22;;;1.14;74.61
47761;BME280;33524;55.434;38.520;2023-03-14T06:52:48;99746.75;;;1.49;72.96
47761;BME280;33524;55.434;38.520;2023-03-14T06:55:19;99756.13;;;1.32;74.38
47761;BME280;33524;55.434;38.520;2023-03-14T06:57:50;99735.34;;;1.15;73.35
47761;BME280;33524;55.434;38.520;2023-03-14T07:00:21;99746.69;;;1.12;73.83
47761;BME280;33524;55.434;38.520;2023-03-14T07:02:52;99751.31;;;0.85;74.73
47761;BME280;33524;55.434;38.520;2023-03-14T07:05:21;99743.16;;;1.13;74.23
47761;BME280;33524;55.434;38.520;2023-03-14T07:07:51;99740.97;;;1.25;73.63
47761;BME280;33524;55.434;38.520;2023-03-14T07:10:20;99729.56;;;1.48;73.61
47761;BME280;33524;55.434;38.520;2023-03-14T07:12:49;99733.44;;;0.99;74.36
47761;BME280;33524;55.434;38.520;2023-03-14T07:15:18;99717.56;;;0.87;75.57
47761;BME280;33524;55.434;38.520;2023-03-14T07:17:50;99725.41;;;1.44;73.40
47761;BME280;33524;55.434;38.520;2023-03-14T07:20:20;99711.19;;;1.14;74.61
47761;BME280;33524;55.434;38.520;2023-03-14T07:22:50;99708.66;;;1.13;75.10
47761;BME280;33524;55.434;38.520;2023-03-14T07:25:19;99709.19;;;1.00;74.81
47761;BME280;33524;55.434;38.520;2023-03-14T07:27:47;99716.34;;;0.95;75.47
47761;BME280;33524;55.434;38.520;2023-03-14T07:30:17;99714.25;;;1.04;75.26
47761;BME280;33524;55.434;38.520;2023-03-14T07:32:46;99722.34;;;1.35;74.17
47761;BME280;33524;55.434;38.520;2023-03-14T07:35:15;99719.16;;;1.86;72.96
47761;BME280;33524;55.434;38.520;2023-03-14T07:37:45;99705.19;;;1.52;73.61
47761;BME280;33524;55.434;38.520;2023-03-14T07:40:15;99695.72;;;1.51;73.84
47761;BME280;33524;55.434;38.520;2023-03-14T07:42:43;99700.28;;;2.01;71.90
47761;BME280;33524;55.434;38.520;2023-03-14T07:45:15;99694.22;;;1.83;72.67
47761;BME280;33524;55.434;38.520;2023-03-14T07:47:45;99683.47;;;2.08;71.33
47761;BME280;33524;55.434;38.520;2023-03-14T07:50:13;99699.56;;;1.97;71.50
47761;BME280;33524;55.434;38.520;2023-03-14T07:52:42;99701.75;;;1.88;72.56
47761;BME280;33524;55.434;38.520;2023-03-14T07:55:12;99695.56;;;2.44;70.10
47761;BME280;33524;55.434;38.520;2023-03-14T07:57:43;99686.88;;;2.62;69.20
47761;BME280;33524;55.434;38.520;2023-03-14T08:00:13;99681.34;;;3.02;67.69
47761;BME280;33524;55.434;38.520;2023-03-14T08:02:42;99689.00;;;2.54;69.53
47761;BME280;33524;55.434;38.520;2023-03-14T08:05:11;99690.66;;;2.55;69.74
47761;BME280;33524;55.434;38.520;2023-03-14T08:07:40;99697.09;;;2.31;70.75
47761;BME280;33524;55.434;38.520;2023-03-14T08:10:09;99691.13;;;2.29;71.01
47761;BME280;33524;55.434;38.520;2023-03-14T08:12:39;99683.66;;;2.40;70.37
47761;BME280;33524;55.434;38.520;2023-03-14T08:15:08;99698.75;;;2.67;69.09
47761;BME280;33524;55.434;38.520;2023-03-14T08:17:37;99694.38;;;2.85;68.46
47761;BME280;33524;55.434;38.520;2023-03-14T08:20:07;99684.09;;;2.66;69.22
47761;BME280;33524;55.434;38.520;2023-03-14T08:22:36;99684.25;;;2.62;69.79
47761;BME280;33524;55.434;38.520;2023-03-14T08:25:05;99680.78;;;2.79;68.83
47761;BME280;33524;55.434;38.520;2023-03-14T08:27:34;99691.56;;;3.05;67.78
47761;BME280;33524;55.434;38.520;2023-03-14T08:30:09;99687.09;;;3.25;67.03
47761;BME280;33524;55.434;38.520;2023-03-14T08:32:39;99685.84;;;3.48;65.73
47761;BME280;33524;55.434;38.520;2023-03-14T08:35:09;99686.50;;;2.86;68.56
47761;BME280;33524;55.434;38.520;2023-03-14T08:37:37;99685.12;;;2.79;69.00
47761;BME280;33524;55.434;38.520;2023-03-14T08:40:07;99680.66;;;2.98;68.08
47761;BME280;33524;55.434;38.520;2023-03-14T08:42:39;99695.63;;;2.60;69.75
47761;BME280;33524;55.434;38.520;2023-03-14T08:45:09;99708.47;;;2.96;68.19
47761;BME280;33524;55.434;38.520;2023-03-14T08:47:39;99709.91;;;3.35;65.86
47761;BME280;33524;55.434;38.520;2023-03-14T08:50:09;99704.50;;;3.07;67.19
47761;BME280;33524;55.434;38.520;2023-03-14T08:52:42;99721.03;;;2.88;68.50
47761;BME280;33524;55.434;38.520;2023-03-14T08:55:10;99711.84;;;2.98;67.88
47761;BME280;33524;55.434;38.520;2023-03-14T08:57:38;99710.19;;;3.78;63.47
47761;BME280;33524;55.434;38.520;2023-03-14T09:00:08;99709.75;;;2.72;69.38
47761;BME280;33524;55.434;38.520;2023-03-14T09:02:44;99702.31;;;3.15;67.43
47761;BME280;33524;55.434;38.520;2023-03-14T09:05:14;99692.91;;;2.96;68.26
47761;BME280;33524;55.434;38.520;2023-03-14T09:07:41;99711.53;;;2.87;68.58
47761;BME280;33524;55.434;38.520;2023-03-14T09:10:10;99707.53;;;3.15;67.20
47761;BME280;33524;55.434;38.520;2023-03-14T09:12:40;99713.19;;;3.87;63.91
47761;BME280;33524;55.434;38.520;2023-03-14T09:15:08;99705.63;;;3.82;64.27
47761;BME280;33524;55.434;38.520;2023-03-14T09:17:36;99705.22;;;3.58;65.45
47761;BME280;33524;55.434;38.520;2023-03-14T09:20:06;99717.59;;;3.37;66.62
47761;BME280;33524;55.434;38.520;2023-03-14T09:22:34;99705.19;;;3.74;65.08
47761;BME280;33524;55.434;38.520;2023-03-14T09:25:04;99704.56;;;4.16;62.87
47761;BME280;33524;55.434;38.520;2023-03-14T09:27:34;99708.38;;;3.95;63.04
47761;BME280;33524;55.434;38.520;2023-03-14T09:30:03;99718.63;;;3.98;64.30
47761;BME280;33524;55.434;38.520;2023-03-14T09:32:33;99714.03;;;4.17;63.29
47761;BME280;33524;55.434;38.520;2023-03-14T09:35:02;99714.38;;;4.11;62.87
47761;BME280;33524;55.434;38.520;2023-03-14T09:37:33;99703.16;;;3.95;63.02
47761;BME280;33524;55.434;38.520;2023-03-14T09:40:03;99702.38;;;4.55;60.47
47761;BME280;33524;55.434;38.520;2023-03-14T09:42:39;99707.69;;;4.68;60.56
47761;BME280;33524;55.434;38.520;2023-03-14T09:45:14;99709.34;;;4.24;62.40
47761;BME280;33524;55.434;38.520;2023-03-14T09:47:49;99709.16;;;4.57;60.60
47761;BME280;33524;55.434;38.520;2023-03-14T09:50:32;99707.84;;;4.20;63.36
47761;BME280;33524;55.434;38.520;2023-03-14T09:53:11;99715.53;;;3.91;64.53
47761;BME280;33524;55.434;38.520;2023-03-14T09:55:44;99723.47;;;4.04;64.22
47761;BME280;33524;55.434;38.520;2023-03-14T09:58:16;99720.69;;;4.07;63.16
47761;BME280;33524;55.434;38.520;2023-03-14T10:00:45;99722.44;;;4.22;63.00
47761;BME280;33524;55.434;38.520;2023-03-14T10:05:42;99715.62;;;4.50;60.87
47761;BME280;33524;55.434;38.520;2023-03-14T10:08:13;99717.59;;;4.16;63.78
47761;BME280;33524;55.434;38.520;2023-03-14T10:10:43;99726.34;;;3.83;65.70
47761;BME280;33524;55.434;38.520;2023-03-14T10:13:18;99714.50;;;4.40;61.22
47761;BME280;33524;55.434;38.520;2023-03-14T10:15:54;99717.56;;;4.32;61.98
47761;BME280;33524;55.434;38.520;2023-03-14T10:18:24;99712.72;;;4.10;64.73
47761;BME280;33524;55.434;38.520;2023-03-14T10:21:17;99722.97;;;4.43;62.14
47761;BME280;33524;55.434;38.520;2023-03-14T10:23:47;99712.59;;;4.28;64.15
47761;BME280;33524;55.434;38.520;2023-03-14T10:26:23;99717.69;;;4.45;62.31
47761;BME280;33524;55.434;38.520;2023-03-14T10:29:02;99703.25;;;4.98;60.83
47761;BME280;33524;55.434;38.520;2023-03-14T10:31:47;99712.63;;;4.72;62.35
47761;BME280;33524;55.434;38.520;2023-03-14T10:34:23;99696.19;;;4.86;60.61
47761;BME280;33524;55.434;38.520;2023-03-14T10:36:55;99712.91;;;4.82;61.39
47761;BME280;33524;55.434;38.520;2023-03-14T10:42:14;99704.37;;;4.94;61.09
47761;BME280;33524;55.434;38.520;2023-03-14T10:44:46;99689.09;;;4.88;62.54
47761;BME280;33524;55.434;38.520;2023-03-14T10:47:19;99683.59;;;4.93;61.92
47761;BME280;33524;55.434;38.520;2023-03-14T10:49:49;99669.22;;;5.43;60.28
47761;BME280;33524;55.434;38.520;2023-03-14T10:52:22;99679.19;;;5.51;59.18
47761;BME280;33524;55.434;38.520;2023-03-14T10:55:12;99674.81;;;5.37;59.92
47761;BME280;33524;55.434;38.520;2023-03-14T10:57:41;99683.97;;;5.71;57.32
47761;BME280;33524;55.434;38.520;2023-03-14T11:00:20;99681.47;;;5.14;62.02
47761;BME280;33524;55.434;38.520;2023-03-14T11:03:08;99683.59;;;5.36;58.56
47761;BME280;33524;55.434;38.520;2023-03-14T11:09:32;99669.44;;;5.40;59.20
47761;BME280;33524;55.434;38.520;2023-03-14T11:11:20;99679.81;;;4.98;62.88
47761;BME280;33524;55.434;38.520;2023-03-14T11:14:25;99668.94;;;5.33;60.80
47761;BME280;33524;55.434;38.520;2023-03-14T11:20:00;99660.00;;;5.37;61.40
47761;BME280;33524;55.434;38.520;2023-03-14T11:22:43;99653.62;;;5.56;60.22
47761;BME280;33524;55.434;38.520;2023-03-14T11:30:51;99663.97;;;5.84;57.95
47761;BME280;33524;55.434;38.520;2023-03-14T11:33:38;99674.63;;;5.81;59.54
47761;BME280;33524;55.434;38.520;2023-03-14T11:36:10;99677.62;;;5.75;58.31
47761;BME280;33524;55.434;38.520;2023-03-14T11:38:43;99676.50;;;5.79;57.97
47761;BME280;33524;55.434;38.520;2023-03-14T11:41:39;99671.09;;;5.68;57.25
47761;BME280;33524;55.434;38.520;2023-03-14T11:44:17;99661.56;;;5.54;57.94
47761;BME280;33524;55.434;38.520;2023-03-14T11:47:24;99682.09;;;5.73;57.27
47761;BME280;33524;55.434;38.520;2023-03-14T11:50:14;99674.38;;;5.30;62.13
47761;BME280;33524;55.434;38.520;2023-03-14T11:52:50;99683.72;;;5.61;58.78
47761;BME280;33524;55.434;38.520;2023-03-14T11:55:25;99695.75;;;5.50;60.00
47761;BME280;33524;55.434;38.520;2023-03-14T11:58:00;99683.31;;;5.26;60.39
47761;BME280;33524;55.434;38.520;2023-03-14T12:00:30;99695.69;;;5.37;60.32
47761;BME280;33524;55.434;38.520;2023-03-14T12:03:35;99697.28;;;4.96;63.59
47761;BME280;33524;55.434;38.520;2023-03-14T12:06:21;99715.72;;;4.93;63.58
47761;BME280;33524;55.434;38.520;2023-03-14T12:08:55;99700.53;;;5.00;60.84
47761;BME280;33524;55.434;38.520;2023-03-14T12:11:48;99706.84;;;4.96;61.95
47761;BME280;33524;55.434;38.520;2023-03-14T12:14:27;99701.41;;;5.15;60.45
47761;BME280;33524;55.434;38.520;2023-03-14T12:16:58;99696.72;;;4.91;62.63
47761;BME280;33524;55.434;38.520;2023-03-14T12:19:35;99693.75;;;4.97;60.75
47761;BME280;33524;55.434;38.520;2023-03-14T12:24:48;99711.78;;;4.72;63.28
47761;BME280;33524;55.434;38.520;2023-03-14T12:30:41;99701.63;;;4.67;64.05
47761;BME280;33524;55.434;38.520;2023-03-14T12:33:26;99711.44;;;4.78;63.45
47761;BME280;33524;55.434;38.520;2023-03-14T12:36:01;99710.13;;;4.85;62.62
47761;BME280;33524;55.434;38.520;2023-03-14T12:39:13;99726.13;;;4.79;60.61
47761;BME280;33524;55.434;38.520;2023-03-14T12:41:37;99730.84;;;4.72;59.83
47761;BME280;33524;55.434;38.520;2023-03-14T12:46:59;99718.63;;;4.58;62.65
47761;BME280;33524;55.434;38.520;2023-03-14T12:49:30;99738.28;;;4.64;60.23
47761;BME280;33524;55.434;38.520;2023-03-14T12:52:00;99742.63;;;4.49;63.76
47761;BME280;33524;55.434;38.520;2023-03-14T12:54:51;99737.84;;;4.41;64.58
47761;BME280;33524;55.434;38.520;2023-03-14T13:00:34;99745.31;;;4.48;60.87
47761;BME280;33524;55.434;38.520;2023-03-14T13:03:21;99750.94;;;4.40;63.79
47761;BME280;33524;55.434;38.520;2023-03-14T13:05:58;99740.72;;;4.37;63.76
47761;BME280;33524;55.434;38.520;2023-03-14T13:08:34;99741.41;;;4.24;63.74
47761;BME280;33524;55.434;38.520;2023-03-14T13:11:12;99752.84;;;4.22;64.88
47761;BME280;33524;55.434;38.520;2023-03-14T13:13:49;99752.31;;;4.15;65.65
47761;BME280;33524;55.434;38.520;2023-03-14T13:16:21;99741.78;;;4.02;64.65
47761;BME280;33524;55.434;38.520;2023-03-14T13:18:59;99749.75;;;3.99;66.36
47761;BME280;33524;55.434;38.520;2023-03-14T13:21:35;99747.66;;;3.90;66.34
47761;BME280;33524;55.434;38.520;2023-03-14T13:24:18;99746.75;;;3.91;64.02
47761;BME280;33524;55.434;38.520;2023-03-14T13:26:49;99744.56;;;3.83;67.66
47761;BME280;33524;55.434;38.520;2023-03-14T13:31:53;99746.59;;;3.78;67.44
47761;BME280;33524;55.434;38.520;2023-03-14T13:34:26;99740.63;;;3.76;67.08
47761;BME280;33524;55.434;38.520;2023-03-14T13:36:57;99728.72;;;3.72;67.76
47761;BME280;33524;55.434;38.520;2023-03-14T13:39:26;99739.75;;;3.76;65.30
47761;BME280;33524;55.434;38.520;2023-03-14T13:41:59;99729.38;;;3.76;67.22
47761;BME280;33524;55.434;38.520;2023-03-14T13:44:34;99730.62;;;3.69;67.82
47761;BME280;33524;55.434;38.520;2023-03-14T13:47:05;99731.66;;;3.66;67.58
47761;BME280;33524;55.434;38.520;2023-03-14T13:49:36;99727.53;;;3.62;67.68
47761;BME280;33524;55.434;38.520;2023-03-14T13:52:28;99726.78;;;3.60;67.76
47761;BME280;33524;55.434;38.520;2023-03-14T13:55:00;99733.97;;;3.55;67.04
47761;BME280;33524;55.434;38.520;2023-03-14T13:57:50;99738.41;;;3.53;67.84
47761;BME280;33524;55.434;38.520;2023-03-14T14:00:27;99716.00;;;3.34;65.81
47761;BME280;33524;55.434;38.520;2023-03-14T14:02:59;99745.66;;;3.48;67.66